sensor_id;sensor_type;location;lat;lon;timestamp;temperature;humidity
25050;DHT22;13046;49.814;9.918;2023-07-08T00:00:51;17.20;99.90
25050;DHT22;13046;49.814;9.918;2023-07-08T00:03:18;17.10;99.90
25050;DHT22;13046;49.814;9.918;2023-07-08T00:05:46;17.00;99.90
25050;DHT22;13046;49.814;9.918;2023-07-08T00:08:17;17.00;99.90
25050;DHT22;13046;49.814;9.918;2023-07-08T00:10:43;16.90;99.90
25050;DHT22;13046;49.814;9.918;2023-07-08T00:13:09;16.90;99.90
25050;DHT22;13046;49.814;9.918;2023-07-08T00:15:36;16.90;99.90
25050;DHT22;13046;49.814;9.918;2023-07-08T00:18:05;16.80;99.90
25050;DHT22;13046;49.814;9.918;2023-07-08T00:20:49;16.70;99.90
25050;DHT22;13046;49.814;9.918;2023-07-08T00:23:15;16.70;99.90
25050;DHT22;13046;49.814;9.918;2023-07-08T00:25:42;16.70;99.90
25050;DHT22;13046;49.814;9.918;2023-07-08T00:28:16;16.70;99.90
25050;DHT22;13046;49.814;9.918;2023-07-08T00:30:42;16.80;99.90
25050;DHT22;13046;49.814;9.918;2023-07-08T00:33:08;16.70;99.90
25050;DHT22;13046;49.814;9.918;2023-07-08T00:35:37;16.70;99.90
25050;DHT22;13046;49.814;9.918;2023-07-08T00:38:25;16.70;99.90
25050;DHT22;13046;49.814;9.918;2023-07-08T00:41:10;16.60;99.90
25050;DHT22;13046;49.814;9.918;2023-07-08T00:43:48;16.60;99.90
25050;DHT22;13046;49.814;9.918;2023-07-08T00:51:48;16.20;99.90
25050;DHT22;13046;49.814;9.918;2023-07-08T00:54:18;16.10;99.90
25050;DHT22;13046;49.814;9.918;2023-07-08T01:02:29;16.20;99.90
25050;DHT22;13046;49.814;9.918;2023-07-08T01:05:26;16.20;99.90
25050;DHT22;13046;49.814;9.918;2023-07-08T01:07:57;16.20;99.90
25050;DHT22;13046;49.814;9.918;2023-07-08T01:10:30;16.20;99.90
25050;DHT22;13046;49.814;9.918;2023-07-08T01:12:59;16.20;99.90
25050;DHT22;13046;49.814;9.918;2023-07-08T01:15:31;16.20;99.90
25050;DHT22;13046;49.814;9.918;2023-07-08T01:17:58;16.10;99.90
25050;DHT22;13046;49.814;9.918;2023-07-08T01:20:24;16.00;99.90
25050;DHT22;13046;49.814;9.918;2023-07-08T01:22:50;16.00;99.90
25050;DHT22;13046;49.814;9.918;2023-07-08T01:25:17;16.00;99.90
25050;DHT22;13046;49.814;9.918;2023-07-08T01:27:47;16.00;99.90
25050;DHT22;13046;49.814;9.918;2023-07-08T01:30:14;15.90;99.90
25050;DHT22;13046;49.814;9.918;2023-07-08T01:32:45;15.90;99.90
25050;DHT22;13046;49.814;9.918;2023-07-08T01:35:13;15.80;99.90
25050;DHT22;13046;49.814;9.918;2023-07-08T01:37:47;15.80;99.90
25050;DHT22;13046;49.814;9.918;2023-07-08T01:40:27;15.80;99.90
25050;DHT22;13046;49.814;9.918;2023-07-08T01:42:54;15.70;99.90
25050;DHT22;13046;49.814;9.918;2023-07-08T01:45:22;15.70;99.90
25050;DHT22;13046;49.814;9.918;2023-07-08T01:47:57;15.70;99.90
25050;DHT22;13046;49.814;9.918;2023-07-08T01:50:23;15.70;99.90
25050;DHT22;13046;49.814;9.918;2023-07-08T01:52:51;15.70;99.90
25050;DHT22;13046;49.814;9.918;2023-07-08T01:55:26;15.70;99.90
25050;DHT22;13046;49.814;9.918;2023-07-08T01:57:55;15.70;99.90
25050;DHT22;13046;49.814;9.918;2023-07-08T02:00:21;15.70;99.90
25050;DHT22;13046;49.814;9.918;2023-07-08T02:02:48;15.70;99.90
25050;DHT22;13046;49.814;9.918;2023-07-08T02:05:14;15.70;99.90
25050;DHT22;13046;49.814;9.918;2023-07-08T02:07:40;15.60;99.90
25050;DHT22;13046;49.814;9.918;2023-07-08T02:10:06;15.50;99.90
25050;DHT22;13046;49.814;9.918;2023-07-08T02:12:33;15.50;99.90
25050;DHT22;13046;49.814;9.918;2023-07-08T02:15:00;15.50;99.90
25050;DHT22;13046;49.814;9.918;2023-07-08T02:17:27;15.40;99.90
25050;DHT22;13046;49.814;9.918;2023-07-08T02:19:56;15.40;99.90
25050;DHT22;13046;49.814;9.918;2023-07-08T02:22:22;15.40;99.90
25050;DHT22;13046;49.814;9.918;2023-07-08T02:24:48;15.50;99.90
25050;DHT22;13046;49.814;9.918;2023-07-08T02:27:15;15.40;99.90
25050;DHT22;13046;49.814;9.918;2023-07-08T02:29:40;15.40;99.90
25050;DHT22;13046;49.814;9.918;2023-07-08T02:32:08;15.40;99.90
25050;DHT22;13046;49.814;9.918;2023-07-08T02:34:35;15.30;99.90
25050;DHT22;13046;49.814;9.918;2023-07-08T02:37:01;15.30;99.90
25050;DHT22;13046;49.814;9.918;2023-07-08T02:39:27;15.30;99.90
25050;DHT22;13046;49.814;9.918;2023-07-08T02:41:52;15.30;99.90
25050;DHT22;13046;49.814;9.918;2023-07-08T02:44:18;15.20;99.90
25050;DHT22;13046;49.814;9.918;2023-07-08T02:46:43;15.20;99.90
25050;DHT22;13046;49.814;9.918;2023-07-08T02:49:09;15.10;99.90
25050;DHT22;13046;49.814;9.918;2023-07-08T02:51:35;15.10;99.90
25050;DHT22;13046;49.814;9.918;2023-07-08T02:54:00;15.00;99.90
25050;DHT22;13046;49.814;9.918;2023-07-08T02:56:26;15.00;99.90
25050;DHT22;13046;49.814;9.918;2023-07-08T02:58:52;15.00;99.90
25050;DHT22;13046;49.814;9.918;2023-07-08T03:01:18;14.90;99.90
25050;DHT22;13046;49.814;9.918;2023-07-08T03:03:47;14.90;99.90
25050;DHT22;13046;49.814;9.918;2023-07-08T03:06:14;14.90;99.90
25050;DHT22;13046;49.814;9.918;2023-07-08T03:08:39;14.80;99.90
25050;DHT22;13046;49.814;9.918;2023-07-08T03:11:06;14.80;99.90
25050;DHT22;13046;49.814;9.918;2023-07-08T03:13:33;14.80;99.90
25050;DHT22;13046;49.814;9.918;2023-07-08T03:16:01;14.60;99.90
25050;DHT22;13046;49.814;9.918;2023-07-08T03:18:29;14.50;99.90
25050;DHT22;13046;49.814;9.918;2023-07-08T03:20:56;14.40;99.90
25050;DHT22;13046;49.814;9.918;2023-07-08T03:23:23;14.40;99.90
25050;DHT22;13046;49.814;9.918;2023-07-08T03:25:50;14.50;99.90
25050;DHT22;13046;49.814;9.918;2023-07-08T03:28:17;14.50;99.90
25050;DHT22;13046;49.814;9.918;2023-07-08T03:30:44;14.40;99.90
25050;DHT22;13046;49.814;9.918;2023-07-08T03:33:11;14.40;99.90
25050;DHT22;13046;49.814;9.918;2023-07-08T03:35:40;14.40;99.90
25050;DHT22;13046;49.814;9.918;2023-07-08T03:38:06;14.40;99.90
25050;DHT22;13046;49.814;9.918;2023-07-08T03:40:31;14.40;99.90
25050;DHT22;13046;49.814;9.918;2023-07-08T03:42:57;14.50;99.90
25050;DHT22;13046;49.814;9.918;2023-07-08T03:45:25;14.50;99.90
25050;DHT22;13046;49.814;9.918;2023-07-08T03:47:51;14.50;99.90
25050;DHT22;13046;49.814;9.918;2023-07-08T03:50:22;14.50;99.90
25050;DHT22;13046;49.814;9.918;2023-07-08T03:52:49;14.50;99.90
25050;DHT22;13046;49.814;9.918;2023-07-08T03:55:16;14.50;99.90
25050;DHT22;13046;49.814;9.918;2023-07-08T03:57:42;14.40;99.90
25050;DHT22;13046;49.814;9.918;2023-07-08T04:00:09;14.40;99.90
25050;DHT22;13046;49.814;9.918;2023-07-08T04:02:43;14.40;99.90
25050;DHT22;13046;49.814;9.918;2023-07-08T04:05:14;14.40;99.90
25050;DHT22;13046;49.814;9.918;2023-07-08T04:07:41;14.40;99.90
25050;DHT22;13046;49.814;9.918;2023-07-08T04:10:08;14.40;99.90
25050;DHT22;13046;49.814;9.918;2023-07-08T04:12:34;14.30;99.90
25050;DHT22;13046;49.814;9.918;2023-07-08T04:14:59;14.20;99.90
25050;DHT22;13046;49.814;9.918;2023-07-08T04:17:28;14.20;99.90
25050;DHT22;13046;49.814;9.918;2023-07-08T04:19:54;14.20;99.90
25050;DHT22;13046;49.814;9.918;2023-07-08T04:22:22;14.00;99.90
25050;DHT22;13046;49.814;9.918;2023-07-08T04:24:48;14.20;99.90
25050;DHT22;13046;49.814;9.918;2023-07-08T04:27:15;14.30;99.90
25050;DHT22;13046;49.814;9.918;2023-07-08T04:29:42;14.40;99.90
25050;DHT22;13046;49.814;9.918;2023-07-08T04:32:08;14.50;99.90
25050;DHT22;13046;49.814;9.918;2023-07-08T04:34:34;14.60;99.90
25050;DHT22;13046;49.814;9.918;2023-07-08T04:36:59;14.70;99.90
25050;DHT22;13046;49.814;9.918;2023-07-08T04:39:26;14.80;99.90
25050;DHT22;13046;49.814;9.918;2023-07-08T04:41:52;14.80;99.90
25050;DHT22;13046;49.814;9.918;2023-07-08T04:44:18;14.80;99.90
25050;DHT22;13046;49.814;9.918;2023-07-08T04:46:45;14.90;99.90
25050;DHT22;13046;49.814;9.918;2023-07-08T04:49:12;15.00;99.90
25050;DHT22;13046;49.814;9.918;2023-07-08T04:51:41;15.10;99.90
25050;DHT22;13046;49.814;9.918;2023-07-08T04:54:07;15.10;99.90
25050;DHT22;13046;49.814;9.918;2023-07-08T04:56:37;15.20;99.90
25050;DHT22;13046;49.814;9.918;2023-07-08T04:59:04;15.30;99.90
25050;DHT22;13046;49.814;9.918;2023-07-08T05:01:30;15.50;99.90
25050;DHT22;13046;49.814;9.918;2023-07-08T05:03:56;15.60;99.90
25050;DHT22;13046;49.814;9.918;2023-07-08T05:06:21;15.70;99.90
25050;DHT22;13046;49.814;9.918;2023-07-08T05:08:47;15.80;99.90
25050;DHT22;13046;49.814;9.918;2023-07-08T05:11:13;15.80;99.90
25050;DHT22;13046;49.814;9.918;2023-07-08T05:13:38;16.00;99.90
25050;DHT22;13046;49.814;9.918;2023-07-08T05:16:04;16.10;99.90
25050;DHT22;13046;49.814;9.918;2023-07-08T05:18:30;16.20;99.90
25050;DHT22;13046;49.814;9.918;2023-07-08T05:20:56;16.30;99.90
25050;DHT22;13046;49.814;9.918;2023-07-08T05:23:21;16.50;99.90
25050;DHT22;13046;49.814;9.918;2023-07-08T05:25:47;16.60;99.90
25050;DHT22;13046;49.814;9.918;2023-07-08T05:28:13;16.70;99.90
25050;DHT22;13046;49.814;9.918;2023-07-08T05:30:40;16.80;99.90
25050;DHT22;13046;49.814;9.918;2023-07-08T05:33:07;17.00;99.90
25050;DHT22;13046;49.814;9.918;2023-07-08T05:35:33;17.20;99.90
25050;DHT22;13046;49.814;9.918;2023-07-08T05:37:59;17.40;99.90
25050;DHT22;13046;49.814;9.918;2023-07-08T05:40:24;17.60;99.90
25050;DHT22;13046;49.814;9.918;2023-07-08T05:42:50;17.80;99.90
25050;DHT22;13046;49.814;9.918;2023-07-08T05:45:16;18.00;99.90
25050;DHT22;13046;49.814;9.918;2023-07-08T05:47:41;18.20;99.90
25050;DHT22;13046;49.814;9.918;2023-07-08T05:50:07;18.50;99.90
25050;DHT22;13046;49.814;9.918;2023-07-08T05:52:33;18.60;99.90
25050;DHT22;13046;49.814;9.918;2023-07-08T05:54:58;18.60;99.90
25050;DHT22;13046;49.814;9.918;2023-07-08T05:57:24;18.70;99.90
25050;DHT22;13046;49.814;9.918;2023-07-08T05:59:50;18.80;99.90
25050;DHT22;13046;49.814;9.918;2023-07-08T06:02:16;19.00;99.90
25050;DHT22;13046;49.814;9.918;2023-07-08T06:04:42;19.10;99.90
25050;DHT22;13046;49.814;9.918;2023-07-08T06:07:08;19.30;99.90
25050;DHT22;13046;49.814;9.918;2023-07-08T06:09:34;19.40;99.90
25050;DHT22;13046;49.814;9.918;2023-07-08T06:11:59;19.60;99.90
25050;DHT22;13046;49.814;9.918;2023-07-08T06:14:27;19.80;99.90
25050;DHT22;13046;49.814;9.918;2023-07-08T06:16:52;20.00;99.90
25050;DHT22;13046;49.814;9.918;2023-07-08T06:19:20;20.10;99.90
25050;DHT22;13046;49.814;9.918;2023-07-08T06:21:46;20.30;99.90
25050;DHT22;13046;49.814;9.918;2023-07-08T06:24:11;20.40;99.90
25050;DHT22;13046;49.814;9.918;2023-07-08T06:26:37;20.60;99.90
25050;DHT22;13046;49.814;9.918;2023-07-08T06:29:03;20.60;99.90
25050;DHT22;13046;49.814;9.918;2023-07-08T06:31:30;20.70;99.90
25050;DHT22;13046;49.814;9.918;2023-07-08T06:33:56;20.80;99.90
25050;DHT22;13046;49.814;9.918;2023-07-08T06:36:21;20.90;99.90
25050;DHT22;13046;49.814;9.918;2023-07-08T06:38:48;21.10;99.90
25050;DHT22;13046;49.814;9.918;2023-07-08T06:41:14;21.40;99.90
25050;DHT22;13046;49.814;9.918;2023-07-08T06:43:39;21.60;99.90
25050;DHT22;13046;49.814;9.918;2023-07-08T06:46:25;21.90;99.90
25050;DHT22;13046;49.814;9.918;2023-07-08T06:48:51;22.20;99.90
25050;DHT22;13046;49.814;9.918;2023-07-08T06:51:16;22.40;99.90
25050;DHT22;13046;49.814;9.918;2023-07-08T06:53:42;22.60;99.90
25050;DHT22;13046;49.814;9.918;2023-07-08T06:56:07;22.90;99.90
25050;DHT22;13046;49.814;9.918;2023-07-08T06:58:33;23.10;99.90
25050;DHT22;13046;49.814;9.918;2023-07-08T07:00:59;23.20;99.90
25050;DHT22;13046;49.814;9.918;2023-07-08T07:03:25;23.50;99.90
25050;DHT22;13046;49.814;9.918;2023-07-08T07:05:51;23.60;99.90
25050;DHT22;13046;49.814;9.918;2023-07-08T07:08:17;23.50;99.90
25050;DHT22;13046;49.814;9.918;2023-07-08T07:10:42;23.50;99.90
25050;DHT22;13046;49.814;9.918;2023-07-08T07:13:08;23.70;99.90
25050;DHT22;13046;49.814;9.918;2023-07-08T07:15:34;24.00;99.90
25050;DHT22;13046;49.814;9.918;2023-07-08T07:18:00;24.30;99.90
25050;DHT22;13046;49.814;9.918;2023-07-08T07:20:26;24.50;99.90
25050;DHT22;13046;49.814;9.918;2023-07-08T07:22:52;24.70;99.90
25050;DHT22;13046;49.814;9.918;2023-07-08T07:25:18;24.90;99.90
25050;DHT22;13046;49.814;9.918;2023-07-08T07:27:44;25.00;99.90
25050;DHT22;13046;49.814;9.918;2023-07-08T07:30:10;25.30;99.90
25050;DHT22;13046;49.814;9.918;2023-07-08T07:32:41;25.60;99.90
25050;DHT22;13046;49.814;9.918;2023-07-08T07:35:07;25.70;99.90
25050;DHT22;13046;49.814;9.918;2023-07-08T07:37:33;26.00;99.90
25050;DHT22;13046;49.814;9.918;2023-07-08T07:39:59;26.30;99.90
25050;DHT22;13046;49.814;9.918;2023-07-08T07:42:27;26.10;99.90
25050;DHT22;13046;49.814;9.918;2023-07-08T07:44:53;26.50;99.90
25050;DHT22;13046;49.814;9.918;2023-07-08T07:47:19;26.80;99.90
25050;DHT22;13046;49.814;9.918;2023-07-08T07:49:44;26.80;99.90
25050;DHT22;13046;49.814;9.918;2023-07-08T07:52:10;26.60;99.90
25050;DHT22;13046;49.814;9.918;2023-07-08T07:54:37;26.60;99.90
25050;DHT22;13046;49.814;9.918;2023-07-08T07:57:04;26.70;99.90
25050;DHT22;13046;49.814;9.918;2023-07-08T07:59:30;26.90;99.90
25050;DHT22;13046;49.814;9.918;2023-07-08T08:01:55;26.90;99.90
25050;DHT22;13046;49.814;9.918;2023-07-08T08:04:21;27.20;99.90
25050;DHT22;13046;49.814;9.918;2023-07-08T08:06:47;27.60;99.90
25050;DHT22;13046;49.814;9.918;2023-07-08T08:09:13;27.80;99.90
25050;DHT22;13046;49.814;9.918;2023-07-08T08:11:39;28.00;99.90
25050;DHT22;13046;49.814;9.918;2023-07-08T23:33:22;28.40;99.90
25050;DHT22;13046;49.814;9.918;2023-07-08T23:35:48;20.80;99.90
25050;DHT22;13046;49.814;9.918;2023-07-08T23:38:14;20.50;99.90
25050;DHT22;13046;49.814;9.918;2023-07-08T23:40:45;20.50;99.90
25050;DHT22;13046;49.814;9.918;2023-07-08T23:43:15;20.40;99.90
25050;DHT22;13046;49.814;9.918;2023-07-08T23:45:46;20.40;99.90
25050;DHT22;13046;49.814;9.918;2023-07-08T23:48:17;20.40;99.90
25050;DHT22;13046;49.814;9.918;2023-07-08T23:50:44;20.30;99.90
25050;DHT22;13046;49.814;9.918;2023-07-08T23:53:14;20.40;99.90
25050;DHT22;13046;49.814;9.918;2023-07-08T23:55:41;20.30;99.90
25050;DHT22;13046;49.814;9.918;2023-07-08T23:58:15;20.30;99.90
